Time;durP1;ratioP1;P1;durP2;ratioP2;P2;SDS_P1;SDS_P2;PMS_P1;PMS_P2;Temp;Humidity;BMP_temperature;BMP_pressure;BME280_temperature;BME280_humidity;BME280_pressure;Samples;Min_cycle;Max_cycle;Signal;HPM_P1;HPM_P2
2022/01/26 00:06:24;;;;;;;3.33;2.05;;;15.90;23.10;16.10;95050.00;;;;10437075;28;45224;-74
2022/01/26 00:11:27;;;;;;;3.95;2.13;;;15.90;23.20;16.10;95058.00;;;;10420155;28;47012;-74
2022/01/26 00:16:40;;;;;;;4.68;2.42;;;15.80;23.30;16.10;95045.00;;;;10436729;28;47186;-74
2022/01/26 00:21:47;;;;;;;5.05;2.35;;;15.80;23.30;16.00;95038.00;;;;10455787;28;45351;-74
2022/01/26 00:42:44;;;;;;;3.47;1.85;;;15.80;23.40;16.00;95042.00;;;;10478530;28;45148;-74
2022/01/26 00:47:45;;;;;;;4.28;2.17;;;15.70;23.40;16.00;95037.00;;;;10477552;28;45176;-74
2022/01/26 00:52:52;;;;;;;3.92;1.83;;;15.80;23.60;16.00;95035.00;;;;10478036;28;45334;-74
2022/01/26 00:57:53;;;;;;;3.38;2.10;;;15.70;23.50;15.90;95031.00;;;;10479121;28;45147;-74
2022/01/26 01:02:56;;;;;;;3.83;2.20;;;15.70;23.50;15.90;95036.00;;;;10484767;28;45307;-74
2022/01/26 01:08:04;;;;;;;3.20;1.77;;;15.70;23.50;15.90;95029.00;;;;10484241;28;46369;-74
2022/01/26 01:13:08;;;;;;;3.00;1.92;;;15.70;23.40;15.90;95009.00;;;;10467982;28;47838;-76
2022/01/26 01:18:16;;;;;;;2.95;1.73;;;15.70;23.60;15.90;95010.00;;;;10467533;28;46840;-76
2022/01/26 01:33:47;;;;;;;2.75;1.58;;;15.70;23.80;15.90;95004.00;;;;10442162;28;45164;-76
2022/01/26 01:38:48;;;;;;;3.58;1.67;;;15.70;23.60;15.80;95002.00;;;;10441710;28;47102;-76
2022/01/26 01:43:48;;;;;;;2.88;1.50;;;15.60;23.60;15.80;94996.00;;;;10441611;28;46418;-76
2022/01/26 01:48:49;;;;;;;3.58;1.73;;;15.60;23.50;15.80;95011.00;;;;10441510;28;46888;-76
2022/01/26 01:53:50;;;;;;;2.70;1.55;;;15.60;23.70;15.70;95013.00;;;;10441347;28;45563;-76
2022/01/26 01:58:56;;;;;;;3.10;1.83;;;15.60;23.70;15.80;94998.00;;;;10440290;28;45285;-76
2022/01/26 02:03:57;;;;;;;3.33;1.70;;;15.60;23.70;15.80;94988.00;;;;10440394;28;47359;-76
2022/01/26 02:08:57;;;;;;;3.97;1.95;;;15.60;23.60;15.80;95001.00;;;;10440484;28;48586;-76
2022/01/26 03:06:48;;;;;;;4.68;2.00;;;15.90;23.40;16.20;94981.00;;;;10397566;28;46279;-76
2022/01/26 03:11:49;;;;;;;4.30;2.22;;;15.90;23.40;16.20;94958.00;;;;10382819;28;47401;-76
2022/01/26 03:16:57;;;;;;;3.63;2.10;;;16.00;23.50;16.20;94965.00;;;;10380399;28;47266;-76
2022/01/26 03:28:15;;;;;;;2.88;1.60;;;16.00;23.40;16.30;94974.00;;;;10479393;28;45102;-76
2022/01/26 03:37:36;;;;;;;3.05;1.80;;;16.10;23.20;16.40;94954.00;;;;10479213;28;45847;-77
2022/01/26 03:42:36;;;;;;;3.70;2.10;;;16.10;23.10;16.40;94963.00;;;;10463655;28;46667;-77
2022/01/26 03:47:37;;;;;;;2.75;1.40;;;16.20;23.00;16.40;94965.00;;;;10461789;28;47033;-76
2022/01/26 03:52:38;;;;;;;3.47;1.95;;;16.10;22.90;16.40;94957.00;;;;10462208;28;48005;-76
2022/01/26 03:57:38;;;;;;;3.35;1.83;;;16.10;22.90;16.30;94965.00;;;;10478813;28;45391;-77
2022/01/26 04:02:39;;;;;;;2.92;1.80;;;16.20;22.80;16.30;94979.00;;;;10462355;28;48350;-76
2022/01/26 04:07:42;;;;;;;3.20;1.85;;;16.10;22.80;16.30;94963.00;;;;10461558;28;47527;-77
2022/01/26 04:12:43;;;;;;;3.80;2.08;;;16.10;22.80;16.20;94968.00;;;;10479345;28;46184;-76
2022/01/26 04:17:43;;;;;;;3.88;2.05;;;16.10;22.80;16.20;94966.00;;;;10478406;28;45351;-77
2022/01/26 04:22:50;;;;;;;3.70;1.77;;;16.00;22.90;16.20;94974.00;;;;10450599;28;45121;-77
2022/01/26 04:27:54;;;;;;;3.13;1.77;;;16.00;22.80;16.20;94962.00;;;;10419756;28;47998;-76
2022/01/26 04:32:59;;;;;;;3.08;1.80;;;16.00;22.90;16.20;94971.00;;;;10436690;28;47502;-76
2022/01/26 04:38:18;;;;;;;3.67;2.00;;;16.00;22.80;16.10;94962.00;;;;10427210;28;47378;-75
2022/01/26 04:43:20;;;;;;;3.97;2.00;;;16.00;22.80;16.10;94969.00;;;;10428543;28;48031;-76
2022/01/26 04:48:23;;;;;;;4.45;2.22;;;16.00;22.80;16.10;94950.00;;;;10442978;28;46271;-76
2022/01/26 04:53:24;;;;;;;4.10;2.15;;;15.90;22.80;16.10;94957.00;;;;10443035;28;45266;-76
2022/01/26 04:58:25;;;;;;;3.85;2.05;;;15.90;22.70;16.10;94941.00;;;;10442629;28;47222;-76
2022/01/26 05:03:25;;;;;;;4.10;2.25;;;15.90;22.70;16.10;94969.00;;;;10442535;28;45372;-77
2022/01/26 05:08:26;;;;;;;4.85;2.30;;;15.90;22.80;16.10;94972.00;;;;10442067;28;48005;-77
2022/01/26 05:13:27;;;;;;;4.28;1.90;;;15.90;22.80;16.10;94950.00;;;;10425358;28;47208;-77
2022/01/26 05:18:28;;;;;;;3.97;1.88;;;15.90;22.80;16.10;94961.00;;;;10442580;28;45270;-77
2022/01/26 05:23:29;;;;;;;2.55;1.70;;;15.90;22.90;16.20;94952.00;;;;10458675;28;47281;-77
2022/01/26 05:28:30;;;;;;;2.45;1.60;;;16.00;23.20;16.20;94971.00;;;;10483137;28;45497;-77
2022/01/26 05:33:30;;;;;;;3.75;2.03;;;16.00;23.30;16.20;94953.00;;;;10483469;28;46666;-76
2022/01/26 05:38:31;;;;;;;5.15;2.30;;;16.00;23.80;16.20;94949.00;;;;10483277;28;46549;-77
2022/01/26 05:43:33;;;;;;;4.20;2.20;;;16.00;23.00;16.20;94941.00;;;;10482796;28;48119;-76
2022/01/26 05:48:37;;;;;;;3.70;2.17;;;16.00;22.90;16.30;94954.00;;;;10465056;28;47238;-76
2022/01/26 05:53:40;;;;;;;3.97;1.95;;;16.00;22.90;16.20;94940.00;;;;10466231;28;47000;-76
2022/01/26 05:58:41;;;;;;;6.65;4.00;;;16.00;22.70;16.20;94961.00;;;;10465739;28;48198;-76
2022/01/26 06:03:42;;;;;;;9.18;6.13;;;16.00;22.60;16.20;94935.00;;;;10465462;28;46806;-76
2022/01/26 06:08:43;;;;;;;8.18;6.00;;;16.00;22.60;16.10;94941.00;;;;10482141;28;45297;-76
2022/01/26 06:13:43;;;;;;;9.90;6.20;;;16.00;22.60;16.10;94955.00;;;;10464739;28;48036;-76
2022/01/26 06:18:44;;;;;;;6.82;4.80;;;15.90;22.60;16.10;94939.00;;;;10481956;28;47114;-75
2022/01/26 06:23:45;;;;;;;6.53;4.68;;;15.90;22.60;16.10;94932.00;;;;10482299;28;45615;-74
2022/01/26 06:28:46;;;;;;;8.77;4.70;;;15.90;22.60;16.10;94932.00;;;;10464132;28;47017;-74
2022/01/26 06:33:47;;;;;;;7.03;4.65;;;15.90;22.70;16.10;94939.00;;;;10464533;28;47114;-74
2022/01/26 06:38:49;;;;;;;7.38;4.72;;;15.90;22.80;16.10;94976.00;;;;10482528;28;45202;-74
2022/01/26 06:43:55;;;;;;;8.85;5.57;;;16.00;22.80;16.10;94960.00;;;;10464370;28;47031;-74
2022/01/26 06:49:03;;;;;;;9.05;5.80;;;16.00;22.70;16.20;94973.00;;;;10481197;28;45194;-74
2022/01/26 06:54:03;;;;;;;10.32;5.22;;;16.00;22.80;16.10;94976.00;;;;10484929;28;45258;-74
2022/01/26 06:59:04;;;;;;;8.00;4.60;;;16.00;23.30;16.10;94990.00;;;;10485979;28;46430;-75
2022/01/26 07:04:05;;;;;;;7.75;4.55;;;16.00;22.90;16.30;94987.00;;;;10476993;28;47277;-74
2022/01/26 07:09:06;;;;;;;8.57;5.22;;;16.00;22.70;16.30;94990.00;;;;10479962;28;46948;-74
2022/01/26 07:14:09;;;;;;;8.65;5.22;;;16.10;22.70;16.20;94990.00;;;;10480469;28;46410;-74
2022/01/26 07:24:29;;;;;;;10.35;5.90;;;16.00;22.50;16.10;95000.00;;;;10396849;28;45182;-74
2022/01/26 07:29:31;;;;;;;11.43;6.55;;;16.10;22.60;16.10;95015.00;;;;10395360;28;47277;-74
2022/01/26 07:34:32;;;;;;;22.55;11.48;;;16.00;22.60;16.10;95013.00;;;;10395958;28;45316;-74
2022/01/26 07:39:47;;;;;;;43.88;19.08;;;15.90;22.60;16.10;95005.00;;;;10376837;28;47411;-75
2022/01/26 07:45:03;;;;;;;34.92;14.60;;;15.90;22.60;16.10;95025.00;;;;10412327;28;46934;-74
2022/01/26 07:50:08;;;;;;;25.23;11.17;;;15.90;22.70;16.10;95005.00;;;;10412261;28;48714;-75
2022/01/26 07:55:18;;;;;;;18.08;8.30;;;15.90;22.80;16.00;95008.00;;;;10412237;28;47192;-75
2022/01/26 08:00:19;;;;;;;15.63;7.53;;;15.90;23.00;16.10;95015.00;;;;10412455;28;45773;-75
2022/01/26 08:05:21;;;;;;;12.00;6.25;;;15.90;23.10;16.10;95005.00;;;;10411812;28;46696;-75
2022/01/26 08:10:22;;;;;;;11.57;6.40;;;15.90;23.20;16.00;95014.00;;;;10410956;28;45465;-75
2022/01/26 08:15:27;;;;;;;13.80;7.32;;;15.90;23.30;16.00;95032.00;;;;10411689;28;47415;-75
2022/01/26 08:20:28;;;;;;;12.73;6.90;;;15.90;23.30;16.00;95041.00;;;;10428599;28;46488;-75
2022/01/26 08:25:29;;;;;;;10.80;5.30;;;15.80;23.20;16.00;95050.00;;;;10460965;28;48185;-77
2022/01/26 08:30:35;;;;;;;7.22;4.47;;;15.80;23.00;16.00;95036.00;;;;10456173;28;47156;-76
2022/01/26 08:35:36;;;;;;;8.87;3.57;;;15.80;23.00;16.30;95053.00;;;;10471657;28;45335;-75
2022/01/26 08:40:37;;;;;;;8.52;3.70;;;16.00;24.20;16.10;95036.00;;;;10472666;28;45843;-76
2022/01/26 08:45:39;;;;;;;6.13;3.45;;;16.00;23.40;16.00;95048.00;;;;10471285;28;46342;-76
2022/01/26 08:50:39;;;;;;;6.68;4.13;;;15.90;23.30;16.00;95052.00;;;;10457006;28;46923;-77
2022/01/26 08:55:40;;;;;;;7.93;4.57;;;15.80;23.30;16.00;95055.00;;;;10477189;28;45167;-77
2022/01/26 09:00:41;;;;;;;7.18;4.60;;;15.80;23.40;16.00;95065.00;;;;10477603;28;45349;-77
2022/01/26 09:05:41;;;;;;;7.57;4.45;;;15.80;23.50;16.00;95060.00;;;;10477396;28;45444;-76
2022/01/26 09:10:42;;;;;;;7.65;4.70;;;15.80;23.80;15.90;95057.00;;;;10477203;28;45277;-76
2022/01/26 09:16:04;;;;;;;7.30;5.00;;;15.80;24.10;15.90;95068.00;;;;10446580;28;47400;-76
2022/01/26 09:21:05;;;;;;;8.35;5.05;;;15.80;24.30;16.00;95059.00;;;;10434279;28;47410;-76
2022/01/26 09:26:06;;;;;;;7.82;4.85;;;15.80;24.50;16.00;95047.00;;;;10483222;28;45224;-76
2022/01/26 09:31:07;;;;;;;6.97;4.53;;;15.80;24.50;16.00;95070.00;;;;10478904;22;45695;-77
2022/01/26 09:36:08;;;;;;;6.93;4.57;;;15.80;24.50;16.00;95053.00;;;;10437235;28;45240;-77
2022/01/26 09:41:09;;;;;;;7.55;4.75;;;15.90;24.50;16.10;95068.00;;;;10378237;28;47481;-77
2022/01/26 09:46:12;;;;;;;8.05;5.00;;;15.90;24.60;16.20;95050.00;;;;10397543;28;47507;-76
2022/01/26 09:51:15;;;;;;;7.35;4.63;;;15.90;24.60;16.10;95074.00;;;;10398440;28;46959;-77
2022/01/26 09:56:16;;;;;;;8.13;4.57;;;16.00;24.60;16.30;95071.00;;;;10397614;28;46498;-77
2022/01/26 10:01:16;;;;;;;7.50;5.10;;;16.00;24.80;16.40;95076.00;;;;10395604;28;45374;-76
2022/01/26 10:06:28;;;;;;;7.47;4.65;;;16.10;25.10;16.40;95083.00;;;;10395260;28;47026;-76
2022/01/26 10:22:02;;;;;;;8.20;5.10;;;16.30;24.90;16.60;95067.00;;;;10398730;28;46000;-78
2022/01/26 10:27:03;;;;;;;7.80;4.63;;;16.40;25.40;16.90;95085.00;;;;10401267;28;48322;-77
2022/01/26 10:32:12;;;;;;;7.97;4.55;;;16.60;25.90;17.10;95088.00;;;;10398981;28;46953;-81
2022/01/26 10:37:13;;;;;;;8.23;4.93;;;16.80;26.00;17.20;95089.00;;;;10397949;28;47339;-75
2022/01/26 10:42:19;;;;;;;8.38;4.78;;;17.00;25.80;17.40;95072.00;;;;10397776;28;48502;-79
2022/01/26 10:47:39;;;;;;;9.80;5.30;;;17.10;25.90;17.50;95074.00;;;;10397712;28;47050;-77
2022/01/26 10:52:40;;;;;;;9.27;5.40;;;17.20;26.40;17.50;95061.00;;;;10398891;28;45418;-75
2022/01/26 10:57:50;;;;;;;12.02;6.63;;;17.30;26.20;17.30;95024.00;;;;10399992;28;45380;-76
2022/01/26 11:02:57;;;;;;;10.85;5.60;;;17.30;25.90;17.50;95033.00;;;;10399397;28;45411;-77
2022/01/26 11:08:00;;;;;;;12.18;6.18;;;17.40;26.10;17.40;95033.00;;;;10397332;28;47530;-77
2022/01/26 11:13:03;;;;;;;13.88;6.65;;;17.40;25.90;17.30;95026.00;;;;10396792;28;48047;-74
2022/01/26 11:18:12;;;;;;;11.15;5.50;;;17.30;26.00;17.10;95030.00;;;;10402995;28;46798;-74
2022/01/26 11:23:13;;;;;;;12.48;6.88;;;17.20;26.10;16.90;95022.00;;;;10443465;28;47128;-74
2022/01/26 11:28:24;;;;;;;13.82;7.20;;;17.00;25.60;16.70;95023.00;;;;10438430;28;47301;-75
2022/01/26 11:33:29;;;;;;;13.65;7.63;;;16.80;25.50;16.70;94985.00;;;;10428634;28;46973;-73
2022/01/26 11:49:11;;;;;;;16.50;9.23;;;16.50;25.40;16.60;94982.00;;;;10423221;28;45653;-73
2022/01/26 11:54:15;;;;;;;17.00;8.85;;;16.40;25.60;16.60;94979.00;;;;10420670;28;45590;-74
2022/01/26 11:59:19;;;;;;;19.35;8.88;;;16.40;25.70;16.60;94964.00;;;;10421959;28;46842;-74
2022/01/26 12:04:19;;;;;;;17.60;8.68;;;16.40;25.50;16.60;94990.00;;;;10406999;28;46463;-74
2022/01/26 12:09:40;;;;;;;17.85;9.23;;;16.50;25.70;16.60;95008.00;;;;10360188;28;48111;-73
2022/01/26 12:15:19;;;;;;;21.10;9.30;;;16.40;25.90;16.60;94995.00;;;;10378430;28;47029;-74
2022/01/26 12:36:19;;;;;;;12.25;7.00;;;16.50;26.00;16.80;94951.00;;;;10405439;28;45815;-75
2022/01/26 12:41:32;;;;;;;8.57;5.28;;;16.60;26.00;16.90;94939.00;;;;10401855;28;46953;-75
2022/01/26 12:46:35;;;;;;;7.47;4.38;;;16.60;25.00;17.00;94974.00;;;;10403173;28;45240;-74
2022/01/26 12:51:55;;;;;;;6.65;3.50;;;16.70;24.30;17.10;94976.00;;;;10404263;28;47419;-74
2022/01/26 12:57:06;;;;;;;7.18;3.80;;;16.80;24.70;17.20;94984.00;;;;10392583;28;47273;-76
2022/01/26 13:02:07;;;;;;;3.60;2.40;;;16.80;24.40;17.20;94967.00;;;;10411111;28;47131;-76
2022/01/26 13:07:15;;;;;;;3.22;1.50;;;16.90;24.10;17.20;94988.00;;;;10410626;28;47117;-76
2022/01/26 13:12:19;;;;;;;2.80;1.50;;;17.00;23.70;17.30;94970.00;;;;10411919;28;45754;-76
2022/01/26 13:17:34;;;;;;;2.28;1.00;;;17.00;23.10;17.30;94990.00;;;;10411031;28;47825;-75
2022/01/26 13:27:54;;;;;;;5.20;2.85;;;17.00;23.10;17.30;94970.00;;;;10446053;28;45232;-73
2022/01/26 13:38:48;;;;;;;4.85;1.75;;;17.10;23.20;17.20;94956.00;;;;10426298;28;45212;-73
2022/01/26 14:04:22;;;;;;;1.80;1.20;;;17.00;22.20;17.20;94951.00;;;;10421789;28;45241;-75
2022/01/26 14:09:22;;;;;;;2.15;1.50;;;17.00;22.10;17.20;94939.00;;;;10404096;28;48191;-75
2022/01/26 14:14:30;;;;;;;3.55;2.00;;;17.00;22.20;17.10;94928.00;;;;10421453;28;45165;-75
2022/01/26 14:19:50;;;;;;;4.25;2.10;;;17.00;22.50;17.10;94938.00;;;;10437111;28;48461;-74
2022/01/26 14:40:47;;;;;;;2.22;1.10;;;16.80;21.90;17.10;94942.00;;;;10399670;28;45892;-76
2022/01/26 15:29:54;;;;;;;0.77;0.60;;;16.80;21.40;17.10;94934.00;;;;10357888;28;45250;-74
2022/01/26 15:33:19;;;;;;;1.30;0.60;;;16.90;23.20;17.30;94953.00;;;;10355985;28;45242;-74
2022/01/26 15:44:22;;;;;;;0.90;0.47;;;17.00;23.30;17.30;94960.00;;;;10354117;28;45098;-73
2022/01/26 15:49:57;;;;;;;1.65;0.60;;;17.00;22.60;17.20;94957.00;;;;10354492;28;46251;-73
2022/01/26 16:21:07;;;;;;;2.42;1.30;;;16.80;21.70;16.90;94990.00;;;;10313115;28;45167;-73
2022/01/26 16:27:15;;;;;;;2.10;1.23;;;16.70;21.60;17.00;94996.00;;;;10305752;28;45428;-74
2022/01/26 18:33:09;;;;;;;;;;;17.20;25.60;17.30;94989.00;;;;10316775;28;45214;-75
2022/01/26 18:54:11;;;;;;;8.65;5.70;;;16.80;22.90;16.90;94995.00;;;;10316568;28;45686;-75
2022/01/26 18:59:14;;;;;;;9.88;6.57;;;16.80;23.00;16.80;95010.00;;;;10317963;28;45461;-75
2022/01/26 19:04:17;;;;;;;13.35;7.20;;;16.70;22.90;16.70;95016.00;;;;10314120;28;45180;-76
2022/01/26 19:09:22;;;;;;;13.45;7.63;;;16.60;23.00;16.70;94995.00;;;;10315197;28;45363;-76
2022/01/26 19:14:32;;;;;;;11.32;6.97;;;16.60;23.00;16.60;94981.00;;;;10315995;28;47186;-75
2022/01/26 19:19:53;;;;;;;13.70;7.82;;;16.60;23.00;16.60;95001.00;;;;10316246;28;45532;-76
2022/01/26 19:30:10;;;;;;;18.58;11.35;;;16.50;22.90;16.50;94996.00;;;;10356036;28;45222;-75
2022/01/26 19:41:16;;;;;;;15.93;9.40;;;16.40;22.80;16.50;94996.00;;;;10325766;28;45095;-75
2022/01/26 19:51:11;;;;;;;14.98;8.45;;;16.30;22.90;16.50;95000.00;;;;10315350;28;45868;-76
2022/01/26 19:56:11;;;;;;;15.40;8.63;;;16.30;22.90;16.40;94980.00;;;;10314274;28;47157;-75
2022/01/26 20:01:18;;;;;;;16.00;8.48;;;16.30;22.70;16.40;94972.00;;;;10299103;28;48048;-75
2022/01/26 20:06:35;;;;;;;15.27;9.00;;;16.30;22.80;16.30;94977.00;;;;10313412;28;48308;-76
2022/01/26 20:11:53;;;;;;;12.90;7.65;;;16.20;22.80;16.30;94972.00;;;;10314035;28;47420;-75
2022/01/26 20:16:54;;;;;;;10.77;6.60;;;16.20;22.80;16.30;94997.00;;;;10299701;28;47156;-75
2022/01/26 20:21:55;;;;;;;10.05;6.75;;;16.20;22.70;16.30;95002.00;;;;10317951;28;48447;-75
2022/01/26 20:26:56;;;;;;;8.88;6.28;;;16.10;22.70;16.20;94984.00;;;;10353850;28;48265;-76
2022/01/26 20:31:56;;;;;;;8.32;4.97;;;16.10;22.70;16.20;94991.00;;;;10353736;28;47440;-75
2022/01/26 20:36:57;;;;;;;5.70;3.67;;;16.10;22.40;16.30;94960.00;;;;10353929;28;47574;-75
2022/01/26 20:41:58;;;;;;;3.70;2.38;;;16.10;22.20;16.30;94976.00;;;;10354066;28;47039;-76
2022/01/26 20:46:59;;;;;;;3.90;2.30;;;16.10;21.90;16.30;94968.00;;;;10353272;28;47796;-76
2022/01/26 20:51:59;;;;;;;4.10;2.42;;;16.10;21.80;16.30;94961.00;;;;10353872;28;47391;-76
2022/01/26 20:57:00;;;;;;;3.05;1.95;;;16.10;21.60;16.30;94956.00;;;;10353351;28;48187;-75
2022/01/26 21:02:01;;;;;;;3.45;1.60;;;16.20;21.60;16.30;94987.00;;;;10353260;28;47184;-76
2022/01/26 21:07:06;;;;;;;3.03;1.58;;;16.20;21.50;16.40;94969.00;;;;10338148;28;47025;-75
2022/01/26 21:13:06;;;;;;;4.57;2.17;;;16.20;21.40;16.40;94990.00;;;;10328637;28;47102;-75
2022/01/26 21:18:07;;;;;;;5.82;3.22;;;16.20;21.30;16.40;94977.00;;;;10333593;28;46976;-75
2022/01/26 21:23:19;;;;;;;6.13;3.13;;;16.20;21.20;16.40;94978.00;;;;10347234;28;47240;-75
2022/01/26 21:28:20;;;;;;;7.38;3.50;;;16.20;21.20;16.30;94981.00;;;;10358422;28;47070;-75
2022/01/26 21:33:22;;;;;;;16.08;6.65;;;16.20;21.10;16.30;94980.00;;;;10357889;28;47472;-75
2022/01/26 21:38:22;;;;;;;21.95;8.63;;;16.20;21.10;16.30;94964.00;;;;10360349;28;45359;-75
2022/01/26 21:43:23;;;;;;;24.02;9.75;;;16.20;21.20;16.20;94940.00;;;;10321369;28;45409;-75
2022/01/26 21:48:24;;;;;;;23.77;9.85;;;16.20;21.20;16.20;94937.00;;;;10319053;28;45296;-75
2022/01/26 21:53:25;;;;;;;22.48;9.68;;;16.10;21.10;16.20;94957.00;;;;10343529;23;45196;-75
2022/01/26 21:58:26;;;;;;;13.90;6.40;;;16.10;21.10;16.20;94949.00;;;;10342077;28;46998;-75
2022/01/26 22:03:27;;;;;;;9.35;4.80;;;16.10;21.10;16.20;94948.00;;;;10322247;28;47137;-75
2022/01/26 22:08:28;;;;;;;5.75;3.22;;;16.10;21.00;16.20;94951.00;;;;10301594;28;48114;-75
2022/01/26 22:13:28;;;;;;;5.15;2.53;;;16.00;20.80;16.20;94942.00;;;;10319137;28;45304;-75
2022/01/26 22:18:29;;;;;;;4.97;2.05;;;16.10;20.90;16.10;94928.00;;;;10301236;28;47228;-75
2022/01/26 22:23:30;;;;;;;3.20;1.58;;;16.00;20.80;16.10;94932.00;;;;10333925;28;47098;-77
2022/01/26 22:28:32;;;;;;;3.60;1.70;;;16.00;20.80;16.10;94933.00;;;;10357333;28;45406;-78
2022/01/26 22:33:33;;;;;;;4.68;2.30;;;15.90;20.70;16.10;94906.00;;;;10341135;28;47209;-78
2022/01/26 22:38:33;;;;;;;5.20;2.50;;;16.00;20.80;16.10;94931.00;;;;10341721;28;47237;-78
2022/01/26 22:43:34;;;;;;;3.80;2.00;;;16.00;20.80;16.10;94926.00;;;;10357780;28;45406;-78
2022/01/26 22:48:35;;;;;;;3.92;2.00;;;16.00;20.70;16.00;94928.00;;;;10340359;28;47453;-77
2022/01/26 22:53:36;;;;;;;3.30;1.90;;;15.90;20.60;16.00;94919.00;;;;10356670;28;45499;-78
2022/01/26 22:58:36;;;;;;;2.42;1.50;;;15.90;20.60;16.00;94926.00;;;;10357107;28;46479;-78
2022/01/26 23:03:40;;;;;;;3.53;1.90;;;15.90;20.50;16.00;94917.00;;;;10339373;28;48271;-78
2022/01/26 23:08:45;;;;;;;4.30;2.58;;;15.90;20.60;16.00;94914.00;;;;10356309;28;46717;-75
2022/01/26 23:13:47;;;;;;;4.50;2.58;;;15.90;20.80;16.00;94923.00;;;;10357489;28;45205;-75
2022/01/26 23:18:49;;;;;;;4.72;2.50;;;15.80;20.90;15.90;94915.00;;;;10356746;28;45350;-75
2022/01/26 23:23:52;;;;;;;5.38;2.30;;;15.80;20.90;15.90;94903.00;;;;10355972;28;45709;-75
